createdAt,value
2022-12-26T00:00:45.198Z,14.10
2022-12-26T00:01:45.121Z,14.60
2022-12-26T00:02:45.176Z,14.90
2022-12-26T00:03:45.260Z,13.30
2022-12-26T00:04:51.957Z,14.30
2022-12-26T00:05:45.091Z,14.40
2022-12-26T00:06:45.065Z,14.10
2022-12-26T00:07:45.048Z,12.20
2022-12-26T00:08:45.049Z,11.80
2022-12-26T00:09:45.032Z,13.30
2022-12-26T00:10:45.030Z,13.10
2022-12-26T00:11:45.005Z,14.80
2022-12-26T00:12:44.999Z,12.90
2022-12-26T00:13:44.984Z,10.20
2022-12-26T00:14:44.977Z,12.20
2022-12-26T00:15:44.974Z,11.60
2022-12-26T00:16:45.050Z,11.90
2022-12-26T00:17:44.939Z,11.70
2022-12-26T00:18:44.931Z,12.60
2022-12-26T00:19:44.917Z,12.90
2022-12-26T00:20:44.927Z,13.10
2022-12-26T00:21:44.893Z,12.90
2022-12-26T00:22:44.889Z,13.00
2022-12-26T00:23:44.874Z,14.20
2022-12-26T00:24:44.870Z,13.70
2022-12-26T00:25:44.858Z,13.60
2022-12-26T00:26:44.840Z,16.60
2022-12-26T00:27:44.827Z,13.70
2022-12-26T00:28:44.819Z,14.10
2022-12-26T00:29:44.813Z,14.20
2022-12-26T00:30:44.805Z,14.10
2022-12-26T00:31:44.873Z,15.30
2022-12-26T00:32:44.776Z,14.20
2022-12-26T00:33:44.772Z,11.30
2022-12-26T00:34:44.757Z,15.20
2022-12-26T00:35:44.786Z,13.40
2022-12-26T00:36:44.746Z,15.70
2022-12-26T00:37:44.717Z,14.30
2022-12-26T00:38:44.706Z,14.80
2022-12-26T00:39:44.692Z,15.10
2022-12-26T00:40:44.695Z,13.90
2022-12-26T00:41:44.675Z,14.40
2022-12-26T00:42:44.669Z,13.90
2022-12-26T00:43:44.665Z,15.40
2022-12-26T00:44:44.653Z,17.20
2022-12-26T00:45:44.640Z,14.70
2022-12-26T00:46:44.662Z,17.50
2022-12-26T00:47:44.603Z,15.80
2022-12-26T00:48:44.643Z,15.50
2022-12-26T00:50:13.128Z,16.00
2022-12-26T00:50:44.596Z,17.50
2022-12-26T00:51:44.567Z,17.10
2022-12-26T00:52:44.560Z,20.30
2022-12-26T00:53:44.579Z,17.20
2022-12-26T00:54:44.547Z,14.70
2022-12-26T00:55:44.533Z,18.20
2022-12-26T00:56:44.516Z,17.40
2022-12-26T00:57:44.498Z,20.60
2022-12-26T00:58:44.503Z,16.20
2022-12-26T00:59:44.483Z,17.30
2022-12-26T01:00:44.527Z,15.60
2022-12-26T01:01:44.629Z,16.20
2022-12-26T01:02:44.622Z,19.10
2022-12-26T01:03:44.427Z,19.50
2022-12-26T01:04:44.423Z,19.10
2022-12-26T01:05:44.423Z,19.10
2022-12-26T01:06:44.402Z,19.10
2022-12-26T01:08:19.737Z,15.60
2022-12-26T01:08:44.401Z,21.00
2022-12-26T01:09:44.360Z,20.30
2022-12-26T01:10:44.357Z,17.90
2022-12-26T01:11:44.364Z,18.90
2022-12-26T01:12:44.484Z,17.20
2022-12-26T01:13:44.315Z,18.40
2022-12-26T01:14:44.311Z,18.30
2022-12-26T01:15:44.317Z,19.00
2022-12-26T01:16:44.465Z,17.50
2022-12-26T01:17:44.272Z,17.40
2022-12-26T01:18:44.266Z,16.90
2022-12-26T01:19:44.250Z,17.60
2022-12-26T01:20:44.245Z,18.30
2022-12-26T01:21:44.257Z,18.10
2022-12-26T01:22:44.221Z,16.30
2022-12-26T01:23:44.206Z,16.60
2022-12-26T01:24:44.200Z,16.40
2022-12-26T01:26:18.131Z,19.60
2022-12-26T01:26:44.205Z,18.50
2022-12-26T01:27:44.166Z,16.50
2022-12-26T01:28:44.152Z,17.50
2022-12-26T01:29:44.140Z,15.60
2022-12-26T01:30:44.148Z,16.70
2022-12-26T01:31:44.179Z,16.50
2022-12-26T01:32:44.116Z,17.40
2022-12-26T01:33:44.127Z,17.20
2022-12-26T01:34:44.089Z,17.50
2022-12-26T01:35:44.074Z,16.60
2022-12-26T01:36:44.075Z,17.60
2022-12-26T01:37:44.054Z,17.30
2022-12-26T01:38:44.045Z,17.40
2022-12-26T01:39:44.032Z,15.20
2022-12-26T01:40:44.050Z,17.60
2022-12-26T01:41:44.020Z,16.00
2022-12-26T01:42:44.013Z,18.10
2022-12-26T01:43:43.991Z,16.30
2022-12-26T01:44:43.985Z,19.00
2022-12-26T01:45:43.987Z,15.70
2022-12-26T01:46:43.978Z,17.40
2022-12-26T01:47:43.940Z,17.00
2022-12-26T01:48:43.938Z,17.20
2022-12-26T01:49:43.923Z,16.10
2022-12-26T01:50:43.925Z,16.10
2022-12-26T01:51:43.903Z,19.70
2022-12-26T01:52:43.891Z,16.40
2022-12-26T01:53:43.891Z,15.90
2022-12-26T01:54:43.867Z,17.90
2022-12-26T01:55:43.854Z,18.80
2022-12-26T01:56:43.856Z,20.70
2022-12-26T01:57:43.830Z,18.90
2022-12-26T01:58:43.828Z,15.20
2022-12-26T01:59:43.814Z,15.70
2022-12-26T02:00:43.832Z,18.60
2022-12-26T02:01:43.956Z,17.90
2022-12-26T02:02:43.912Z,17.40
2022-12-26T02:03:43.764Z,18.00
2022-12-26T02:04:43.779Z,20.00
2022-12-26T02:05:43.745Z,16.90
2022-12-26T02:06:43.747Z,18.80
2022-12-26T02:07:43.726Z,18.10
2022-12-26T02:08:43.713Z,19.30
2022-12-26T02:09:43.700Z,15.20
2022-12-26T02:10:43.691Z,16.80
2022-12-26T02:11:43.690Z,18.20
2022-12-26T02:12:43.675Z,19.00
2022-12-26T02:13:43.653Z,17.60
2022-12-26T02:14:43.654Z,17.20
2022-12-26T02:15:43.649Z,16.60
2022-12-26T02:16:43.677Z,19.70
2022-12-26T02:17:43.667Z,17.30
2022-12-26T02:18:43.606Z,17.80
2022-12-26T02:19:43.589Z,19.00
2022-12-26T02:20:43.582Z,19.60
2022-12-26T02:21:43.581Z,16.90
2022-12-26T02:22:43.566Z,16.70
2022-12-26T02:23:43.545Z,21.20
2022-12-26T02:24:43.540Z,18.70
2022-12-26T02:25:43.522Z,17.40
2022-12-26T02:26:43.540Z,17.90
2022-12-26T02:27:43.500Z,18.40
2022-12-26T02:28:43.524Z,19.60
2022-12-26T02:29:43.477Z,18.10
2022-12-26T02:30:43.475Z,20.90
2022-12-26T02:31:43.478Z,17.40
2022-12-26T02:32:43.457Z,19.80
2022-12-26T02:33:43.431Z,18.80
2022-12-26T02:34:43.429Z,18.20
2022-12-26T02:35:43.413Z,21.50
2022-12-26T02:36:43.408Z,19.50
2022-12-26T02:37:43.400Z,16.80
2022-12-26T02:38:43.380Z,19.40
2022-12-26T02:39:46.714Z,19.70
2022-12-26T02:40:43.387Z,21.30
2022-12-26T02:41:43.343Z,21.50
2022-12-26T02:42:43.380Z,20.60
2022-12-26T02:43:43.320Z,18.40
2022-12-26T02:44:43.861Z,18.10
2022-12-26T02:45:44.335Z,20.20
2022-12-26T02:46:45.935Z,20.90
2022-12-26T02:47:45.926Z,19.30
2022-12-26T02:48:43.269Z,22.20
2022-12-26T02:49:43.255Z,22.40
2022-12-26T02:50:43.258Z,23.40
2022-12-26T02:51:43.246Z,21.80
2022-12-26T02:52:43.241Z,19.60
2022-12-26T02:53:43.229Z,20.40
2022-12-26T02:54:43.212Z,21.70
2022-12-26T02:55:43.190Z,20.60
2022-12-26T02:56:43.182Z,20.30
2022-12-26T02:57:43.175Z,19.20
2022-12-26T02:58:43.158Z,21.50
2022-12-26T02:59:53.933Z,19.20
2022-12-26T03:00:43.156Z,19.70
2022-12-26T03:01:43.238Z,20.20
2022-12-26T03:02:43.217Z,23.90
2022-12-26T03:03:43.106Z,24.50
2022-12-26T03:04:43.091Z,21.90
2022-12-26T03:05:43.082Z,20.20
2022-12-26T03:06:43.072Z,20.40
2022-12-26T03:07:43.069Z,22.40
2022-12-26T03:08:43.043Z,20.40
2022-12-26T03:09:43.041Z,24.80
2022-12-26T03:10:43.020Z,21.20
2022-12-26T03:11:43.016Z,22.40
2022-12-26T03:12:43.007Z,20.80
2022-12-26T03:13:43.007Z,20.40
2022-12-26T03:14:42.980Z,23.20
2022-12-26T03:15:42.971Z,21.80
2022-12-26T03:16:42.975Z,22.50
2022-12-26T03:17:42.963Z,20.30
2022-12-26T03:18:57.003Z,20.60
2022-12-26T03:19:42.933Z,21.30
2022-12-26T03:20:42.913Z,25.30
2022-12-26T03:21:42.906Z,22.40
2022-12-26T03:22:42.926Z,23.10
2022-12-26T03:23:42.881Z,23.90
2022-12-26T03:24:42.869Z,23.30
2022-12-26T03:25:42.859Z,24.30
2022-12-26T03:26:42.861Z,19.10
2022-12-26T03:27:42.853Z,22.00
2022-12-26T03:28:42.828Z,22.30
2022-12-26T03:29:42.815Z,24.50
2022-12-26T03:30:42.831Z,22.30
2022-12-26T03:31:42.793Z,22.10
2022-12-26T03:32:42.790Z,22.00
2022-12-26T03:33:42.772Z,20.70
2022-12-26T03:34:42.758Z,21.60
2022-12-26T03:35:42.749Z,20.20
2022-12-26T03:36:42.735Z,19.70
2022-12-26T03:37:48.450Z,22.40
2022-12-26T03:38:42.717Z,20.50
2022-12-26T03:39:42.709Z,22.30
2022-12-26T03:40:42.688Z,20.80
2022-12-26T03:41:42.682Z,21.70
2022-12-26T03:42:42.685Z,20.50
2022-12-26T03:43:42.665Z,22.40
2022-12-26T03:44:44.215Z,19.70
2022-12-26T03:45:42.691Z,23.80
2022-12-26T03:46:42.622Z,20.30
2022-12-26T03:47:42.620Z,22.30
2022-12-26T03:48:42.607Z,20.10
2022-12-26T03:49:42.594Z,20.10
2022-12-26T03:50:42.580Z,23.20
2022-12-26T03:51:42.584Z,21.20
2022-12-26T03:52:42.554Z,21.90
2022-12-26T03:53:42.558Z,23.40
2022-12-26T03:54:42.533Z,22.20
2022-12-26T03:55:42.525Z,19.40
2022-12-26T03:56:42.517Z,20.10
2022-12-26T03:57:42.517Z,20.20
2022-12-26T03:58:42.504Z,21.50
2022-12-26T03:59:42.528Z,20.80
2022-12-26T04:00:42.467Z,17.70
2022-12-26T04:01:42.565Z,19.50
2022-12-26T04:02:42.444Z,20.70
2022-12-26T04:03:42.595Z,20.30
2022-12-26T04:04:42.423Z,19.40
2022-12-26T04:05:42.416Z,21.40
2022-12-26T04:06:42.407Z,19.20
2022-12-26T04:07:56.172Z,21.00
2022-12-26T04:08:42.398Z,18.90
2022-12-26T04:09:42.379Z,20.00
2022-12-26T04:10:42.363Z,19.30
2022-12-26T04:11:42.348Z,18.00
2022-12-26T04:12:42.333Z,19.70
2022-12-26T04:13:42.334Z,17.60
2022-12-26T04:14:42.318Z,19.20
2022-12-26T04:15:42.337Z,18.20
2022-12-26T04:16:42.289Z,17.50
2022-12-26T04:17:42.282Z,20.20
2022-12-26T04:18:42.280Z,19.60
2022-12-26T04:19:42.272Z,17.50
2022-12-26T04:20:42.247Z,18.00
2022-12-26T04:21:42.235Z,21.60
2022-12-26T04:22:42.235Z,18.70
2022-12-26T04:23:42.219Z,19.00
2022-12-26T04:24:42.224Z,16.00
2022-12-26T04:25:48.355Z,19.10
2022-12-26T04:26:42.187Z,18.80
2022-12-26T04:27:42.170Z,17.10
2022-12-26T04:28:42.171Z,16.10
2022-12-26T04:29:42.155Z,15.60
2022-12-26T04:30:42.184Z,18.10
2022-12-26T04:31:42.190Z,16.90
2022-12-26T04:32:42.115Z,20.50
2022-12-26T04:33:42.108Z,17.10
2022-12-26T04:34:42.094Z,16.90
2022-12-26T04:35:42.083Z,17.80
2022-12-26T04:36:42.073Z,17.40
2022-12-26T04:37:42.062Z,17.70
2022-12-26T04:38:42.060Z,18.20
2022-12-26T04:39:42.040Z,16.90
2022-12-26T04:40:42.026Z,17.00
2022-12-26T04:41:42.030Z,17.10
2022-12-26T04:42:42.005Z,16.20
2022-12-26T04:43:49.048Z,18.00
2022-12-26T04:44:41.989Z,19.00
2022-12-26T04:45:41.964Z,18.60
2022-12-26T04:46:42.059Z,20.40
2022-12-26T04:47:41.945Z,18.10
2022-12-26T04:48:41.951Z,18.10
2022-12-26T04:49:41.923Z,19.10
2022-12-26T04:50:41.916Z,19.40
2022-12-26T04:51:41.923Z,18.60
2022-12-26T04:52:41.894Z,19.70
2022-12-26T04:53:41.900Z,17.90
2022-12-26T04:54:41.881Z,17.30
2022-12-26T04:55:41.857Z,18.70
2022-12-26T04:56:41.858Z,19.60
2022-12-26T04:57:41.833Z,17.70
2022-12-26T04:58:41.837Z,18.70
2022-12-26T04:59:41.818Z,20.00
2022-12-26T05:00:41.808Z,19.10
2022-12-26T05:01:41.930Z,18.60
2022-12-26T05:02:41.982Z,17.90
2022-12-26T05:03:41.839Z,22.20
2022-12-26T05:04:41.767Z,19.10
2022-12-26T05:05:41.743Z,17.00
2022-12-26T05:06:41.738Z,15.80
2022-12-26T05:07:41.726Z,17.20
2022-12-26T05:08:41.732Z,17.10
2022-12-26T05:09:41.707Z,17.10
2022-12-26T05:10:41.703Z,16.80
2022-12-26T05:11:41.677Z,17.20
2022-12-26T05:12:41.676Z,20.40
2022-12-26T05:13:41.667Z,18.00
2022-12-26T05:14:41.650Z,19.10
2022-12-26T05:15:41.711Z,17.40
2022-12-26T05:16:41.649Z,17.90
2022-12-26T05:17:41.645Z,18.00
2022-12-26T05:18:41.623Z,15.80
2022-12-26T05:19:41.590Z,16.50
2022-12-26T05:20:41.582Z,16.80
2022-12-26T05:21:41.571Z,15.40
2022-12-26T05:22:41.574Z,16.80
2022-12-26T05:23:41.557Z,16.30
2022-12-26T05:24:41.534Z,17.00
2022-12-26T05:25:41.525Z,16.40
2022-12-26T05:26:41.524Z,17.10
2022-12-26T05:27:41.501Z,16.00
2022-12-26T05:28:41.512Z,17.20
2022-12-26T05:29:41.482Z,19.10
2022-12-26T05:30:41.484Z,21.20
2022-12-26T05:31:41.583Z,19.70
2022-12-26T05:32:41.450Z,17.70
2022-12-26T05:33:41.463Z,16.40
2022-12-26T05:34:41.430Z,16.30
2022-12-26T05:35:41.427Z,15.20
2022-12-26T05:36:41.415Z,15.70
2022-12-26T05:37:41.387Z,16.10
2022-12-26T05:38:41.393Z,16.20
2022-12-26T05:39:41.382Z,17.10
2022-12-26T05:40:41.364Z,20.50
2022-12-26T05:41:41.346Z,17.00
2022-12-26T05:42:41.345Z,18.50
2022-12-26T05:43:41.325Z,15.90
2022-12-26T05:44:41.333Z,17.50
2022-12-26T05:45:41.304Z,14.60
2022-12-26T05:46:41.431Z,19.10
2022-12-26T05:47:42.165Z,17.60
2022-12-26T05:48:41.336Z,16.10
2022-12-26T05:49:41.273Z,23.70
2022-12-26T05:50:41.257Z,16.70
2022-12-26T05:51:41.243Z,17.90
2022-12-26T05:52:41.228Z,15.10
2022-12-26T05:53:41.212Z,15.70
2022-12-26T05:54:41.220Z,14.00
2022-12-26T05:55:41.201Z,16.80
2022-12-26T05:56:45.905Z,15.60
2022-12-26T05:57:41.175Z,15.90
2022-12-26T05:58:41.182Z,15.20
2022-12-26T05:59:41.155Z,15.30
2022-12-26T06:00:41.140Z,13.70
2022-12-26T06:01:41.220Z,17.20
2022-12-26T06:02:41.245Z,14.50
2022-12-26T06:03:41.129Z,16.70
2022-12-26T06:04:41.100Z,17.10
2022-12-26T06:05:41.087Z,16.20
2022-12-26T06:06:41.076Z,13.40
2022-12-26T06:07:41.070Z,14.50
2022-12-26T06:08:41.051Z,17.00
2022-12-26T06:09:41.052Z,14.90
2022-12-26T06:10:41.039Z,15.00
2022-12-26T06:11:48.401Z,16.40
2022-12-26T06:12:41.018Z,15.70
2022-12-26T06:13:40.999Z,15.70
2022-12-26T06:14:40.988Z,13.90
2022-12-26T06:15:40.975Z,16.50
2022-12-26T06:16:41.019Z,16.50
2022-12-26T06:17:40.953Z,14.20
2022-12-26T06:18:40.968Z,17.30
2022-12-26T06:19:46.483Z,16.10
2022-12-26T06:20:40.933Z,15.10
2022-12-26T06:21:40.910Z,16.80
2022-12-26T06:22:40.897Z,14.10
2022-12-26T06:23:40.899Z,13.30
2022-12-26T06:24:40.882Z,14.30
2022-12-26T06:25:40.868Z,13.90
2022-12-26T06:26:40.853Z,14.90
2022-12-26T06:27:40.848Z,14.50
2022-12-26T06:28:40.871Z,15.50
2022-12-26T06:29:40.832Z,13.00
2022-12-26T06:30:40.807Z,14.50
2022-12-26T06:31:40.905Z,14.50
2022-12-26T06:32:40.785Z,14.50
2022-12-26T06:33:40.776Z,15.40
2022-12-26T06:34:40.777Z,16.10
2022-12-26T06:35:40.757Z,15.10
2022-12-26T06:36:40.740Z,17.20
2022-12-26T06:37:40.731Z,16.30
2022-12-26T06:38:40.728Z,14.10
2022-12-26T06:39:40.725Z,14.70
2022-12-26T06:40:40.696Z,13.50
2022-12-26T06:41:40.689Z,14.40
2022-12-26T06:42:40.675Z,13.10
2022-12-26T06:43:40.672Z,13.00
2022-12-26T06:44:40.660Z,13.40
2022-12-26T06:45:40.645Z,14.10
2022-12-26T06:46:40.674Z,13.90
2022-12-26T06:47:40.626Z,13.20
2022-12-26T06:48:40.611Z,13.30
2022-12-26T06:49:40.617Z,15.00
2022-12-26T06:50:40.587Z,12.30
2022-12-26T06:51:40.578Z,14.00
2022-12-26T06:52:40.566Z,14.60
2022-12-26T06:53:40.587Z,12.90
2022-12-26T06:54:40.542Z,15.10
2022-12-26T06:55:40.542Z,13.80
2022-12-26T06:56:40.581Z,12.70
2022-12-26T06:57:40.518Z,12.60
2022-12-26T06:58:40.501Z,18.00
2022-12-26T06:59:40.493Z,14.40
2022-12-26T07:00:40.538Z,12.80
2022-12-26T07:01:40.712Z,13.50
2022-12-26T07:02:40.643Z,14.30
2022-12-26T07:03:46.564Z,14.40
2022-12-26T07:04:40.433Z,14.20
2022-12-26T07:05:40.431Z,15.00
2022-12-26T07:06:40.415Z,15.90
2022-12-26T07:07:40.410Z,16.30
2022-12-26T07:08:40.386Z,12.80
2022-12-26T07:09:40.383Z,12.20
2022-12-26T07:10:40.372Z,14.80
2022-12-26T07:11:40.364Z,13.30
2022-12-26T07:12:40.348Z,11.80
2022-12-26T07:13:40.332Z,12.60
2022-12-26T07:14:40.320Z,11.60
2022-12-26T07:15:40.322Z,11.40
2022-12-26T07:16:40.358Z,12.20
2022-12-26T07:17:40.291Z,11.70
2022-12-26T07:18:40.279Z,10.90
2022-12-26T07:19:40.266Z,12.50
2022-12-26T07:20:40.263Z,11.90
2022-12-26T07:21:41.222Z,13.60
2022-12-26T07:22:40.233Z,12.50
2022-12-26T07:23:40.230Z,12.50
2022-12-26T07:24:40.208Z,11.80
2022-12-26T07:25:40.208Z,11.90
2022-12-26T07:26:40.187Z,12.30
2022-12-26T07:27:40.179Z,11.00
2022-12-26T07:28:40.175Z,10.90
2022-12-26T07:29:40.160Z,10.50
2022-12-26T07:30:40.166Z,9.30
2022-12-26T07:31:40.186Z,11.50
2022-12-26T07:32:40.125Z,9.90
2022-12-26T07:33:40.132Z,10.80
2022-12-26T07:34:40.100Z,10.70
2022-12-26T07:35:40.107Z,10.10
2022-12-26T07:36:40.082Z,11.20
2022-12-26T07:37:40.071Z,10.20
2022-12-26T07:38:40.057Z,10.60
2022-12-26T07:39:40.076Z,11.40
2022-12-26T07:40:40.060Z,10.10
2022-12-26T07:41:40.184Z,10.20
2022-12-26T07:42:40.014Z,9.00
2022-12-26T07:43:40.001Z,8.80
2022-12-26T07:44:39.992Z,9.60
2022-12-26T07:45:45.391Z,10.40
2022-12-26T07:46:40.070Z,9.10
2022-12-26T07:47:39.964Z,8.90
2022-12-26T07:48:39.947Z,11.10
2022-12-26T07:49:39.942Z,11.40
2022-12-26T07:50:39.943Z,9.50
2022-12-26T07:51:39.916Z,10.10
2022-12-26T07:52:39.905Z,9.00
2022-12-26T07:53:39.902Z,11.60
2022-12-26T07:54:39.876Z,9.70
2022-12-26T07:55:39.871Z,13.10
2022-12-26T07:56:39.883Z,10.90
2022-12-26T07:57:48.963Z,11.30
2022-12-26T07:58:39.845Z,11.10
2022-12-26T07:59:39.831Z,11.00
2022-12-26T08:00:39.950Z,11.50
2022-12-26T08:01:40.013Z,11.90
2022-12-26T08:02:40.039Z,13.30
2022-12-26T08:03:39.894Z,12.90
2022-12-26T08:04:39.775Z,12.40
2022-12-26T08:05:39.767Z,13.20
2022-12-26T08:06:39.751Z,13.10
2022-12-26T08:07:39.744Z,13.20
2022-12-26T08:08:41.915Z,13.20
2022-12-26T08:09:39.727Z,17.00
2022-12-26T08:10:39.705Z,13.70
2022-12-26T08:11:39.701Z,14.50
2022-12-26T08:12:39.683Z,14.70
2022-12-26T08:13:39.681Z,14.50
2022-12-26T08:14:39.672Z,16.20
2022-12-26T08:15:39.657Z,17.60
2022-12-26T08:16:39.696Z,16.90
2022-12-26T08:17:39.630Z,17.10
2022-12-26T08:18:39.623Z,15.20
2022-12-26T08:19:39.608Z,15.90
2022-12-26T08:20:39.601Z,15.10
2022-12-26T08:21:39.603Z,15.30
2022-12-26T08:22:39.578Z,14.00
2022-12-26T08:23:39.564Z,16.50
2022-12-26T08:24:39.547Z,14.80
2022-12-26T08:25:39.543Z,15.10
2022-12-26T08:26:39.539Z,13.70
2022-12-26T08:27:39.528Z,15.50
2022-12-26T08:28:39.520Z,15.30
2022-12-26T08:29:39.496Z,14.10
2022-12-26T08:30:39.489Z,14.20
2022-12-26T08:31:39.510Z,14.00
2022-12-26T08:32:42.464Z,12.50
2022-12-26T08:33:39.450Z,15.00
2022-12-26T08:34:39.439Z,13.50
2022-12-26T08:35:39.474Z,13.00
2022-12-26T08:36:39.438Z,12.50
2022-12-26T08:37:39.409Z,12.20
2022-12-26T08:38:39.397Z,11.50
2022-12-26T08:39:39.392Z,13.40
2022-12-26T08:40:44.101Z,10.80
2022-12-26T08:41:39.373Z,9.90
2022-12-26T08:42:55.950Z,10.90
2022-12-26T08:44:16.562Z,11.30
2022-12-26T08:44:39.336Z,12.80
2022-12-26T08:45:39.364Z,10.20
2022-12-26T08:46:39.315Z,10.90
2022-12-26T08:47:39.298Z,11.00
2022-12-26T08:48:39.322Z,10.70
2022-12-26T08:49:39.278Z,9.50
2022-12-26T08:50:41.324Z,10.70
2022-12-26T08:51:39.265Z,8.60
2022-12-26T08:52:39.238Z,8.60
2022-12-26T08:53:39.230Z,9.40
2022-12-26T08:54:39.224Z,8.50
2022-12-26T08:55:39.203Z,7.70
2022-12-26T08:56:39.291Z,9.50
2022-12-26T08:57:39.180Z,8.80
2022-12-26T08:58:39.203Z,9.50
2022-12-26T08:59:39.159Z,7.60
2022-12-26T09:00:39.156Z,8.80
2022-12-26T09:01:39.222Z,11.20
2022-12-26T09:02:39.395Z,8.20
2022-12-26T09:03:39.121Z,9.80
2022-12-26T09:04:39.103Z,8.90
2022-12-26T09:05:39.100Z,8.40
2022-12-26T09:06:39.215Z,8.30
2022-12-26T09:07:39.083Z,6.90
2022-12-26T09:08:39.059Z,8.00
2022-12-26T09:09:39.056Z,6.90
2022-12-26T09:10:39.038Z,7.40
2022-12-26T09:11:39.044Z,8.10
2022-12-26T09:12:39.018Z,6.00
2022-12-26T09:13:39.035Z,5.70
2022-12-26T09:14:38.992Z,7.90
2022-12-26T09:15:38.986Z,7.60
2022-12-26T09:16:43.003Z,5.70
2022-12-26T09:17:38.968Z,9.20
2022-12-26T09:18:38.986Z,7.20
2022-12-26T09:19:38.946Z,5.80
2022-12-26T09:20:38.933Z,5.30
2022-12-26T09:21:38.928Z,4.80
2022-12-26T09:22:38.908Z,5.60
2022-12-26T09:23:38.900Z,6.80
2022-12-26T09:24:38.899Z,7.60
2022-12-26T09:25:38.882Z,5.90
2022-12-26T09:26:38.878Z,5.00
2022-12-26T09:27:38.859Z,5.50
2022-12-26T09:28:38.852Z,3.70
2022-12-26T09:29:38.834Z,6.40
2022-12-26T09:30:38.841Z,4.30
2022-12-26T09:31:38.828Z,3.40
2022-12-26T09:32:38.799Z,3.70
2022-12-26T09:33:38.824Z,4.30
2022-12-26T09:34:38.776Z,3.50
2022-12-26T09:35:38.766Z,3.90
2022-12-26T09:36:38.751Z,4.90
2022-12-26T09:37:38.752Z,4.50
2022-12-26T09:38:38.727Z,5.00
2022-12-26T09:39:38.779Z,5.30
2022-12-26T09:40:38.708Z,4.90
2022-12-26T09:41:38.698Z,2.90
2022-12-26T09:42:38.702Z,5.00
2022-12-26T09:43:38.679Z,4.20
2022-12-26T09:44:38.691Z,4.10
2022-12-26T09:45:38.660Z,4.80
2022-12-26T09:46:38.793Z,4.70
2022-12-26T09:47:38.644Z,3.80
2022-12-26T09:48:38.618Z,5.30
2022-12-26T09:49:38.613Z,4.10
2022-12-26T09:50:42.921Z,3.50
2022-12-26T09:51:38.594Z,3.60
2022-12-26T09:52:38.586Z,4.30
2022-12-26T09:53:38.569Z,6.80
2022-12-26T09:54:38.556Z,3.30
2022-12-26T09:55:38.548Z,4.40
2022-12-26T09:57:02.266Z,3.50
2022-12-26T09:57:38.546Z,4.00
2022-12-26T09:58:38.519Z,4.80
2022-12-26T09:59:38.501Z,3.50
2022-12-26T10:00:38.490Z,2.80
2022-12-26T10:01:38.562Z,2.90
2022-12-26T10:02:38.572Z,4.10
2022-12-26T10:03:38.458Z,2.70
2022-12-26T10:04:38.500Z,3.70
2022-12-26T10:05:38.440Z,2.90
2022-12-26T10:06:38.423Z,2.40
2022-12-26T10:07:38.442Z,2.70
2022-12-26T10:08:38.403Z,5.30
2022-12-26T10:09:38.399Z,2.70
2022-12-26T10:10:38.378Z,5.90
2022-12-26T10:11:38.376Z,4.70
2022-12-26T10:12:38.375Z,3.60
2022-12-26T10:13:38.349Z,3.30
2022-12-26T10:14:38.335Z,4.60
2022-12-26T10:15:38.380Z,4.90
2022-12-26T10:16:38.314Z,3.60
2022-12-26T10:17:38.317Z,4.80
2022-12-26T10:18:38.290Z,4.20
2022-12-26T10:19:38.283Z,2.80
2022-12-26T10:20:38.273Z,3.60
2022-12-26T10:21:38.263Z,4.60
2022-12-26T10:22:38.275Z,3.00
2022-12-26T10:23:38.242Z,3.80
2022-12-26T10:24:38.231Z,3.70
2022-12-26T10:25:38.219Z,4.50
2022-12-26T10:26:38.202Z,3.50
2022-12-26T10:27:38.204Z,4.50
2022-12-26T10:28:38.181Z,5.60
2022-12-26T10:29:38.179Z,3.60
2022-12-26T10:30:38.157Z,4.30
2022-12-26T10:31:38.154Z,2.80
2022-12-26T10:32:38.160Z,3.50
2022-12-26T10:33:38.140Z,4.50
2022-12-26T10:34:38.116Z,3.00
2022-12-26T10:35:38.113Z,3.70
2022-12-26T10:36:38.091Z,3.60
2022-12-26T10:37:38.106Z,3.30
2022-12-26T10:38:38.069Z,3.00
2022-12-26T10:39:38.064Z,4.60
2022-12-26T10:40:38.053Z,3.60
2022-12-26T10:41:38.053Z,4.50
2022-12-26T10:42:38.025Z,3.60
2022-12-26T10:43:38.031Z,3.90
2022-12-26T10:44:38.006Z,3.10
2022-12-26T10:45:37.999Z,5.20
2022-12-26T10:46:38.029Z,3.50
2022-12-26T10:47:37.980Z,3.10
2022-12-26T10:48:37.970Z,7.00
2022-12-26T10:49:37.978Z,2.50
2022-12-26T10:50:37.939Z,4.50
2022-12-26T10:51:37.937Z,4.10
2022-12-26T10:52:37.919Z,4.10
2022-12-26T10:53:37.922Z,4.90
2022-12-26T10:54:37.895Z,3.70
2022-12-26T10:55:37.903Z,3.30
2022-12-26T10:56:37.872Z,5.50
2022-12-26T10:57:37.868Z,2.70
2022-12-26T10:58:37.861Z,3.70
2022-12-26T10:59:37.860Z,4.00
2022-12-26T11:00:37.832Z,4.60
2022-12-26T11:01:37.991Z,3.30
2022-12-26T11:02:37.889Z,7.10
2022-12-26T11:03:37.841Z,4.70
2022-12-26T11:05:10.429Z,2.90
2022-12-26T11:06:06.259Z,9.10
2022-12-26T11:06:37.772Z,4.10
2022-12-26T11:07:37.758Z,4.60
2022-12-26T11:08:43.111Z,5.50
2022-12-26T11:09:37.741Z,4.70
2022-12-26T11:10:37.722Z,3.30
2022-12-26T11:11:37.720Z,4.10
2022-12-26T11:12:37.697Z,7.70
2022-12-26T11:13:37.723Z,7.30
2022-12-26T11:14:37.674Z,4.60
2022-12-26T11:15:37.717Z,5.30
2022-12-26T11:16:37.716Z,5.70
2022-12-26T11:17:37.645Z,4.60
2022-12-26T11:18:37.663Z,4.90
2022-12-26T11:19:37.632Z,3.30
2022-12-26T11:20:37.615Z,3.20
2022-12-26T11:21:37.606Z,1.90
2022-12-26T11:22:37.587Z,2.60
2022-12-26T11:23:37.587Z,8.10
2022-12-26T11:24:37.563Z,1.90
2022-12-26T11:25:37.558Z,3.40
2022-12-26T11:26:37.565Z,3.30
2022-12-26T11:27:37.536Z,3.60
2022-12-26T11:28:37.527Z,4.30
2022-12-26T11:29:37.515Z,3.90
2022-12-26T11:30:37.497Z,3.60
2022-12-26T11:31:37.546Z,7.70
2022-12-26T11:32:37.479Z,5.70
2022-12-26T11:33:37.478Z,4.40
2022-12-26T11:34:37.468Z,4.40
2022-12-26T11:35:37.450Z,2.30
2022-12-26T11:36:37.433Z,3.50
2022-12-26T11:37:37.424Z,3.20
2022-12-26T11:38:44.445Z,3.50
2022-12-26T11:39:37.415Z,4.00
2022-12-26T11:40:37.388Z,6.10
2022-12-26T11:41:37.380Z,3.40
2022-12-26T11:42:37.383Z,7.00
2022-12-26T11:43:37.371Z,2.10
2022-12-26T11:44:37.343Z,3.50
2022-12-26T11:45:39.084Z,5.10
2022-12-26T11:46:37.339Z,2.30
2022-12-26T11:47:37.316Z,4.40
2022-12-26T11:48:37.308Z,4.10
2022-12-26T11:49:37.294Z,4.70
2022-12-26T11:50:37.278Z,7.60
2022-12-26T11:51:37.281Z,5.30
2022-12-26T11:52:37.260Z,6.30
2022-12-26T11:53:37.257Z,6.90
2022-12-26T11:54:37.237Z,3.20
2022-12-26T11:55:37.270Z,4.80
2022-12-26T11:56:37.212Z,3.60
2022-12-26T11:57:37.207Z,2.10
2022-12-26T11:58:37.204Z,5.30
2022-12-26T11:59:37.184Z,6.00
2022-12-26T12:00:37.173Z,3.60
2022-12-26T12:01:37.193Z,6.80
2022-12-26T12:02:37.248Z,4.90
2022-12-26T12:03:37.172Z,3.70
2022-12-26T12:04:37.132Z,6.20
2022-12-26T12:05:37.113Z,10.00
2022-12-26T12:06:37.106Z,4.00
2022-12-26T12:07:37.104Z,4.10
2022-12-26T12:08:37.098Z,5.90
2022-12-26T12:09:37.067Z,3.60
2022-12-26T12:10:37.061Z,4.60
2022-12-26T12:11:37.049Z,6.80
2022-12-26T12:12:37.040Z,3.50
2022-12-26T12:13:37.028Z,4.00
2022-12-26T12:14:37.061Z,4.60
2022-12-26T12:15:37.004Z,3.40
2022-12-26T12:16:37.014Z,3.80
2022-12-26T12:17:37.013Z,5.30
2022-12-26T12:18:36.975Z,4.70
2022-12-26T12:19:36.968Z,2.80
2022-12-26T12:20:36.953Z,3.30
2022-12-26T12:21:36.942Z,4.30
2022-12-26T12:22:36.931Z,14.90
2022-12-26T12:23:36.913Z,6.10
2022-12-26T12:24:36.916Z,7.40
2022-12-26T12:25:36.895Z,5.60
2022-12-26T12:26:36.886Z,4.00
2022-12-26T12:27:36.887Z,6.20
2022-12-26T12:28:36.869Z,5.50
2022-12-26T12:29:36.859Z,3.40
2022-12-26T12:30:36.843Z,7.30
2022-12-26T12:31:36.842Z,4.30
2022-12-26T12:32:36.824Z,5.50
2022-12-26T12:33:36.805Z,4.60
2022-12-26T12:34:36.807Z,3.40
2022-12-26T12:35:36.781Z,9.80
2022-12-26T12:36:36.777Z,4.10
2022-12-26T12:37:36.760Z,5.10
2022-12-26T12:38:36.755Z,2.40
2022-12-26T12:39:36.747Z,4.70
2022-12-26T12:40:36.729Z,2.80
2022-12-26T12:41:36.716Z,3.10
2022-12-26T12:42:36.712Z,3.30
2022-12-26T12:43:36.711Z,3.00
2022-12-26T12:44:36.696Z,5.30
2022-12-26T12:45:36.755Z,4.00
2022-12-26T12:46:36.668Z,4.40
2022-12-26T12:47:36.648Z,4.20
2022-12-26T12:48:36.643Z,3.80
2022-12-26T12:49:36.637Z,3.70
2022-12-26T12:50:36.617Z,2.50
2022-12-26T12:51:36.609Z,3.00
2022-12-26T12:52:36.595Z,3.70
2022-12-26T12:53:36.589Z,2.00
2022-12-26T12:54:36.606Z,8.80
2022-12-26T12:55:36.562Z,5.80
2022-12-26T12:56:41.926Z,6.30
2022-12-26T12:57:36.546Z,5.10
2022-12-26T12:58:36.532Z,4.60
2022-12-26T12:59:36.540Z,3.70
2022-12-26T13:00:36.562Z,3.90
2022-12-26T13:01:36.607Z,5.30